sensor_id;sensor_type;location;lat;lon;timestamp;pressure;altitude;pressure_sealevel;temperature;humidity
70133;BME280;57495;49.922;7.966;2023-02-28T00:00:53;101037.28;;;0.08;68.59
70133;BME280;57495;49.922;7.966;2023-02-28T00:02:54;101032.81;;;0.10;68.24
70133;BME280;57495;49.922;7.966;2023-02-28T00:04:56;101041.47;;;0.14;68.26
70133;BME280;57495;49.922;7.966;2023-02-28T00:07:03;101044.16;;;0.12;68.33
70133;BME280;57495;49.922;7.966;2023-02-28T00:09:06;101039.06;;;0.08;68.49
70133;BME280;57495;49.922;7.966;2023-02-28T00:11:10;101039.88;;;0.10;68.24
70133;BME280;57495;49.922;7.966;2023-02-28T00:13:12;101035.53;;;0.07;68.26
70133;BME280;57495;49.922;7.966;2023-02-28T00:15:13;101040.81;;;0.07;68.34
70133;BME280;57495;49.922;7.966;2023-02-28T00:17:15;101035.25;;;0.16;68.15
70133;BME280;57495;49.922;7.966;2023-02-28T00:19:17;101035.09;;;-0.06;68.60
70133;BME280;57495;49.922;7.966;2023-02-28T00:21:20;101039.31;;;0.00;68.76
70133;BME280;57495;49.922;7.966;2023-02-28T00:23:21;101035.25;;;-0.10;68.52
70133;BME280;57495;49.922;7.966;2023-02-28T00:25:25;101035.22;;;-0.09;68.81
70133;BME280;57495;49.922;7.966;2023-02-28T00:27:26;101033.22;;;-0.02;68.78
70133;BME280;57495;49.922;7.966;2023-02-28T00:29:28;101035.75;;;0.01;68.46
70133;BME280;57495;49.922;7.966;2023-02-28T00:31:29;101038.56;;;-0.04;68.95
70133;BME280;57495;49.922;7.966;2023-02-28T00:33:30;101033.16;;;-0.01;68.62
70133;BME280;57495;49.922;7.966;2023-02-28T00:35:32;101039.19;;;0.03;68.72
70133;BME280;57495;49.922;7.966;2023-02-28T00:37:34;101035.75;;;0.01;68.61
70133;BME280;57495;49.922;7.966;2023-02-28T00:39:36;101028.69;;;0.03;68.54
70133;BME280;57495;49.922;7.966;2023-02-28T00:41:39;101030.41;;;0.04;68.93
70133;BME280;57495;49.922;7.966;2023-02-28T00:43:40;101023.53;;;0.00;69.21
70133;BME280;57495;49.922;7.966;2023-02-28T00:45:43;101026.34;;;-0.06;69.06
70133;BME280;57495;49.922;7.966;2023-02-28T00:47:44;101025.91;;;0.08;68.78
70133;BME280;57495;49.922;7.966;2023-02-28T00:49:46;101032.31;;;-0.01;69.41
70133;BME280;57495;49.922;7.966;2023-02-28T00:51:48;101023.31;;;0.06;68.91
70133;BME280;57495;49.922;7.966;2023-02-28T00:53:50;101026.66;;;0.11;68.64
70133;BME280;57495;49.922;7.966;2023-02-28T00:55:51;101028.69;;;0.03;69.35
70133;BME280;57495;49.922;7.966;2023-02-28T00:57:54;101025.03;;;0.07;68.85
70133;BME280;57495;49.922;7.966;2023-02-28T00:59:55;101023.06;;;0.14;68.77
70133;BME280;57495;49.922;7.966;2023-02-28T01:01:57;101026.75;;;0.08;69.02
70133;BME280;57495;49.922;7.966;2023-02-28T01:03:58;101028.78;;;0.00;69.39
70133;BME280;57495;49.922;7.966;2023-02-28T01:06:00;101022.41;;;0.07;69.35
70133;BME280;57495;49.922;7.966;2023-02-28T01:08:01;101027.53;;;0.12;68.96
70133;BME280;57495;49.922;7.966;2023-02-28T01:10:04;101027.53;;;0.12;69.64
70133;BME280;57495;49.922;7.966;2023-02-28T01:12:06;101023.47;;;0.02;70.09
70133;BME280;57495;49.922;7.966;2023-02-28T01:14:11;101025.03;;;0.07;70.05
70133;BME280;57495;49.922;7.966;2023-02-28T01:16:14;101018.28;;;0.00;69.94
70133;BME280;57495;49.922;7.966;2023-02-28T01:18:16;101019.09;;;0.02;69.95
70133;BME280;57495;49.922;7.966;2023-02-28T01:20:17;101016.34;;;0.05;69.95
70133;BME280;57495;49.922;7.966;2023-02-28T01:22:19;101021.50;;;0.08;70.06
70133;BME280;57495;49.922;7.966;2023-02-28T01:24:23;101023.38;;;0.05;70.26
70133;BME280;57495;49.922;7.966;2023-02-28T01:26:24;101022.59;;;0.01;70.85
70133;BME280;57495;49.922;7.966;2023-02-28T01:28:26;101017.94;;;0.09;70.29
70133;BME280;57495;49.922;7.966;2023-02-28T01:30:29;101016.34;;;0.05;70.41
70133;BME280;57495;49.922;7.966;2023-02-28T01:32:31;101021.50;;;0.08;70.00
70133;BME280;57495;49.922;7.966;2023-02-28T01:34:32;101017.25;;;0.04;70.22
70133;BME280;57495;49.922;7.966;2023-02-28T01:36:34;101014.72;;;0.01;70.44
70133;BME280;57495;49.922;7.966;2023-02-28T01:38:36;101012.91;;;0.03;70.71
70133;BME280;57495;49.922;7.966;2023-02-28T01:40:40;101015.88;;;-0.08;71.04
70133;BME280;57495;49.922;7.966;2023-02-28T01:42:42;101016.47;;;0.02;70.59
70133;BME280;57495;49.922;7.966;2023-02-28T01:45:04;101018.97;;;0.05;70.85
70133;BME280;57495;49.922;7.966;2023-02-28T01:47:09;101013.88;;;0.01;71.08
70133;BME280;57495;49.922;7.966;2023-02-28T01:49:13;101016.00;;;-0.11;71.38
70133;BME280;57495;49.922;7.966;2023-02-28T01:51:19;101012.19;;;-0.02;70.99
70133;BME280;57495;49.922;7.966;2023-02-28T01:53:31;101015.66;;;0.00;71.31
70133;BME280;57495;49.922;7.966;2023-02-28T01:55:34;101013.19;;;-0.06;71.69
70133;BME280;57495;49.922;7.966;2023-02-28T01:57:38;101009.72;;;-0.07;71.88
70133;BME280;57495;49.922;7.966;2023-02-28T01:59:45;101009.72;;;-0.07;72.23
70133;BME280;57495;49.922;7.966;2023-02-28T02:01:50;101003.00;;;-0.15;72.86
70133;BME280;57495;49.922;7.966;2023-02-28T02:03:54;101008.28;;;-0.17;73.36
70133;BME280;57495;49.922;7.966;2023-02-28T02:05:56;101004.00;;;-0.20;73.60
70133;BME280;57495;49.922;7.966;2023-02-28T02:08:02;101003.97;;;-0.18;73.56
70133;BME280;57495;49.922;7.966;2023-02-28T02:10:06;101004.06;;;-0.21;74.01
70133;BME280;57495;49.922;7.966;2023-02-28T02:12:19;101001.59;;;-0.26;74.20
70133;BME280;57495;49.922;7.966;2023-02-28T02:14:38;101005.16;;;-0.28;74.65
70133;BME280;57495;49.922;7.966;2023-02-28T02:16:55;100997.28;;;-0.28;74.76
70133;BME280;57495;49.922;7.966;2023-02-28T02:19:14;101001.00;;;-0.35;75.65
70133;BME280;57495;49.922;7.966;2023-02-28T02:21:54;101003.59;;;-0.34;75.27
70133;BME280;57495;49.922;7.966;2023-02-28T02:24:21;100996.09;;;-0.46;76.23
70133;BME280;57495;49.922;7.966;2023-02-28T02:26:47;100999.28;;;-0.36;76.26
70133;BME280;57495;49.922;7.966;2023-02-28T02:29:06;100997.38;;;-0.31;76.25
70133;BME280;57495;49.922;7.966;2023-02-28T02:36:23;100999.44;;;-0.41;77.09
70133;BME280;57495;49.922;7.966;2023-02-28T02:38:32;100997.59;;;-0.39;77.17
70133;BME280;57495;49.922;7.966;2023-02-28T02:40:38;100998.44;;;-0.37;77.13
70133;BME280;57495;49.922;7.966;2023-02-28T02:42:50;100999.38;;;-0.40;77.09
70133;BME280;57495;49.922;7.966;2023-02-28T02:44:56;100991.25;;;-0.32;76.62
70133;BME280;57495;49.922;7.966;2023-02-28T02:47:04;100996.78;;;-0.41;77.13
70133;BME280;57495;49.922;7.966;2023-02-28T02:49:10;100998.31;;;-0.34;76.85
70133;BME280;57495;49.922;7.966;2023-02-28T02:51:16;100999.28;;;-0.36;76.92
70133;BME280;57495;49.922;7.966;2023-02-28T02:53:24;101001.00;;;-0.35;76.79
70133;BME280;57495;49.922;7.966;2023-02-28T02:55:29;101000.16;;;-0.36;77.32
70133;BME280;57495;49.922;7.966;2023-02-28T02:57:35;101004.69;;;-0.41;77.28
70133;BME280;57495;49.922;7.966;2023-02-28T02:59:42;101002.16;;;-0.44;77.41
70133;BME280;57495;49.922;7.966;2023-02-28T03:01:44;100999.59;;;-0.46;77.15
70133;BME280;57495;49.922;7.966;2023-02-28T03:03:46;101002.16;;;-0.44;77.29
70133;BME280;57495;49.922;7.966;2023-02-28T03:05:49;101004.06;;;-0.49;77.22
70133;BME280;57495;49.922;7.966;2023-02-28T03:07:50;101004.00;;;-0.46;77.33
70133;BME280;57495;49.922;7.966;2023-02-28T03:09:55;101001.66;;;-0.55;77.73
70133;BME280;57495;49.922;7.966;2023-02-28T03:11:57;100999.03;;;-0.55;77.61
70133;BME280;57495;49.922;7.966;2023-02-28T03:16:36;100987.63;;;-0.56;78.03
70133;BME280;57495;49.922;7.966;2023-02-28T03:18:50;100990.94;;;-0.49;77.48
70133;BME280;57495;49.922;7.966;2023-02-28T03:21:01;100991.31;;;-0.62;77.99
70133;BME280;57495;49.922;7.966;2023-02-28T03:23:16;101002.00;;;-0.68;78.16
70133;BME280;57495;49.922;7.966;2023-02-28T03:25:24;100995.00;;;-0.67;77.63
70133;BME280;57495;49.922;7.966;2023-02-28T03:27:30;100984.25;;;-0.60;77.47
70133;BME280;57495;49.922;7.966;2023-02-28T03:29:38;100996.44;;;-0.57;77.26
70133;BME280;57495;49.922;7.966;2023-02-28T03:31:44;100991.31;;;-0.62;77.19
70133;BME280;57495;49.922;7.966;2023-02-28T03:33:53;100990.13;;;-0.80;77.64
70133;BME280;57495;49.922;7.966;2023-02-28T03:35:58;100992.59;;;-0.75;77.59
70133;BME280;57495;49.922;7.966;2023-02-28T03:38:06;100993.31;;;-0.70;76.69
70133;BME280;57495;49.922;7.966;2023-02-28T03:40:15;100995.94;;;-0.70;76.44
70133;BME280;57495;49.922;7.966;2023-02-28T03:42:24;100995.50;;;-0.84;77.13
70133;BME280;57495;49.922;7.966;2023-02-28T03:44:30;100991.75;;;-0.75;76.57
70133;BME280;57495;49.922;7.966;2023-02-28T03:46:36;100995.22;;;-0.75;76.49
70133;BME280;57495;49.922;7.966;2023-02-28T03:48:45;100994.41;;;-0.77;76.40
70133;BME280;57495;49.922;7.966;2023-02-28T03:50:52;100989.16;;;-0.77;76.38
70133;BME280;57495;49.922;7.966;2023-02-28T03:52:58;100999.59;;;-0.74;75.61
70133;BME280;57495;49.922;7.966;2023-02-28T03:55:05;101001.44;;;-0.77;76.11
70133;BME280;57495;49.922;7.966;2023-02-28T03:57:13;100990.16;;;-0.81;75.99
70133;BME280;57495;49.922;7.966;2023-02-28T03:59:22;100994.63;;;-0.83;76.09
70133;BME280;57495;49.922;7.966;2023-02-28T04:01:31;101001.66;;;-0.85;76.13
70133;BME280;57495;49.922;7.966;2023-02-28T04:03:36;100994.63;;;-0.83;75.73
70133;BME280;57495;49.922;7.966;2023-02-28T04:05:47;100997.16;;;-0.82;75.45
70133;BME280;57495;49.922;7.966;2023-02-28T04:07:51;100994.50;;;-0.80;75.43
70133;BME280;57495;49.922;7.966;2023-02-28T04:09:52;100999.84;;;-0.83;75.07
70133;BME280;57495;49.922;7.966;2023-02-28T04:11:54;101001.56;;;-0.82;75.31
70133;BME280;57495;49.922;7.966;2023-02-28T04:13:56;101001.66;;;-0.85;75.22
70133;BME280;57495;49.922;7.966;2023-02-28T04:15:59;101004.19;;;-0.82;75.01
70133;BME280;57495;49.922;7.966;2023-02-28T04:18:00;101002.41;;;-0.82;75.17
70133;BME280;57495;49.922;7.966;2023-02-28T04:20:03;101005.38;;;-0.92;74.98
70133;BME280;57495;49.922;7.966;2023-02-28T04:22:09;101004.34;;;-0.87;75.11
70133;BME280;57495;49.922;7.966;2023-02-28T04:24:13;101008.81;;;-0.90;75.13
70133;BME280;57495;49.922;7.966;2023-02-28T04:26:15;101008.91;;;-0.93;75.33
70133;BME280;57495;49.922;7.966;2023-02-28T04:28:16;101008.72;;;-0.87;75.09
70133;BME280;57495;49.922;7.966;2023-02-28T04:30:18;101008.72;;;-0.87;74.87
70133;BME280;57495;49.922;7.966;2023-02-28T04:32:21;101000.41;;;-1.02;75.55
70133;BME280;57495;49.922;7.966;2023-02-28T04:34:24;100998.94;;;-1.12;75.58
70133;BME280;57495;49.922;7.966;2023-02-28T04:36:26;101001.22;;;-1.00;75.02
70133;BME280;57495;49.922;7.966;2023-02-28T04:38:28;101008.78;;;-0.89;74.60
70133;BME280;57495;49.922;7.966;2023-02-28T04:40:33;101003.66;;;-0.93;74.45
70133;BME280;57495;49.922;7.966;2023-02-28T04:42:34;101002.81;;;-0.94;74.87
70133;BME280;57495;49.922;7.966;2023-02-28T04:44:36;101007.09;;;-0.91;74.66
70133;BME280;57495;49.922;7.966;2023-02-28T04:46:37;100998.34;;;-0.92;74.92
70133;BME280;57495;49.922;7.966;2023-02-28T04:48:40;101006.03;;;-0.86;74.62
70133;BME280;57495;49.922;7.966;2023-02-28T04:50:43;101000.97;;;-0.92;74.66
70133;BME280;57495;49.922;7.966;2023-02-28T04:52:45;100997.59;;;-0.95;74.73
70133;BME280;57495;49.922;7.966;2023-02-28T04:54:48;101006.44;;;-0.98;74.95
70133;BME280;57495;49.922;7.966;2023-02-28T04:56:49;100995.94;;;-0.98;74.63
70133;BME280;57495;49.922;7.966;2023-02-28T04:58:51;101004.66;;;-0.98;74.34
70133;BME280;57495;49.922;7.966;2023-02-28T05:00:53;100991.38;;;-0.93;74.14
70133;BME280;57495;49.922;7.966;2023-02-28T05:02:55;100999.41;;;-0.98;73.65
70133;BME280;57495;49.922;7.966;2023-02-28T05:04:58;101000.13;;;-0.92;73.71
70133;BME280;57495;49.922;7.966;2023-02-28T05:07:00;101001.28;;;-1.03;73.68
70133;BME280;57495;49.922;7.966;2023-02-28T05:09:02;100999.63;;;-1.05;73.64
70133;BME280;57495;49.922;7.966;2023-02-28T05:11:05;101004.16;;;-1.10;73.68
70133;BME280;57495;49.922;7.966;2023-02-28T05:13:09;101002.03;;;-0.98;73.54
70133;BME280;57495;49.922;7.966;2023-02-28T05:15:12;101008.16;;;-0.99;73.31
70133;BME280;57495;49.922;7.966;2023-02-28T05:17:14;101014.34;;;-1.00;73.20
70133;BME280;57495;49.922;7.966;2023-02-28T05:19:16;101008.66;;;-1.15;73.39
70133;BME280;57495;49.922;7.966;2023-02-28T05:21:28;101007.63;;;-1.10;73.34
70133;BME280;57495;49.922;7.966;2023-02-28T05:23:29;101010.78;;;-0.99;72.93
70133;BME280;57495;49.922;7.966;2023-02-28T05:25:31;101006.59;;;-1.04;73.06
70133;BME280;57495;49.922;7.966;2023-02-28T05:27:33;101010.50;;;-1.19;73.31
70133;BME280;57495;49.922;7.966;2023-02-28T05:29:34;101004.09;;;-1.09;73.13
70133;BME280;57495;49.922;7.966;2023-02-28T05:31:43;101007.63;;;-1.10;72.97
70133;BME280;57495;49.922;7.966;2023-02-28T05:33:44;101000.66;;;-1.11;73.06
70133;BME280;57495;49.922;7.966;2023-02-28T05:35:46;101012.38;;;-1.24;73.61
70133;BME280;57495;49.922;7.966;2023-02-28T05:37:49;101010.50;;;-1.19;73.49
70133;BME280;57495;49.922;7.966;2023-02-28T05:39:50;101011.50;;;-1.23;73.77
70133;BME280;57495;49.922;7.966;2023-02-28T05:41:52;101008.88;;;-1.23;73.71
70133;BME280;57495;49.922;7.966;2023-02-28T05:43:53;101008.81;;;-1.20;73.77
70133;BME280;57495;49.922;7.966;2023-02-28T05:45:55;101010.69;;;-1.25;73.72
70133;BME280;57495;49.922;7.966;2023-02-28T05:47:56;101014.97;;;-1.23;73.58
70133;BME280;57495;49.922;7.966;2023-02-28T05:49:59;101013.38;;;-1.28;73.87
70133;BME280;57495;49.922;7.966;2023-02-28T05:52:01;101011.50;;;-1.23;73.55
70133;BME280;57495;49.922;7.966;2023-02-28T05:54:04;101015.63;;;-1.14;73.46
70133;BME280;57495;49.922;7.966;2023-02-28T05:56:06;101013.31;;;-1.25;73.21
70133;BME280;57495;49.922;7.966;2023-02-28T05:58:07;101019.63;;;-1.32;73.76
70133;BME280;57495;49.922;7.966;2023-02-28T06:00:10;101015.13;;;-1.27;73.15
70133;BME280;57495;49.922;7.966;2023-02-28T06:02:14;101015.00;;;-1.24;72.92
70133;BME280;57495;49.922;7.966;2023-02-28T06:04:18;101016.94;;;-1.29;73.32
70133;BME280;57495;49.922;7.966;2023-02-28T06:06:22;101016.72;;;-1.22;72.67
70133;BME280;57495;49.922;7.966;2023-02-28T06:08:28;101017.63;;;-1.24;73.14
70133;BME280;57495;49.922;7.966;2023-02-28T06:10:31;101022.69;;;-1.17;72.81
70133;BME280;57495;49.922;7.966;2023-02-28T06:12:32;101020.25;;;-1.24;72.92
70133;BME280;57495;49.922;7.966;2023-02-28T06:14:34;101026.22;;;-1.18;72.87
70133;BME280;57495;49.922;7.966;2023-02-28T06:16:36;101025.44;;;-1.21;72.62
70133;BME280;57495;49.922;7.966;2023-02-28T06:18:37;101020.81;;;-1.13;72.87
70133;BME280;57495;49.922;7.966;2023-02-28T06:20:39;101019.22;;;-1.19;72.96
70133;BME280;57495;49.922;7.966;2023-02-28T06:22:40;101028.94;;;-1.22;72.60
70133;BME280;57495;49.922;7.966;2023-02-28T06:24:43;101027.06;;;-1.17;72.94
70133;BME280;57495;49.922;7.966;2023-02-28T06:26:45;101024.19;;;-1.08;72.36
70133;BME280;57495;49.922;7.966;2023-02-28T06:28:49;101030.50;;;-1.15;72.72
70133;BME280;57495;49.922;7.966;2023-02-28T06:30:51;101034.91;;;-1.15;72.71
70133;BME280;57495;49.922;7.966;2023-02-28T06:32:54;101041.78;;;-1.11;72.26
70133;BME280;57495;49.922;7.966;2023-02-28T06:34:56;101037.41;;;-1.11;72.71
70133;BME280;57495;49.922;7.966;2023-02-28T06:36:58;101039.97;;;-1.09;72.41
70133;BME280;57495;49.922;7.966;2023-02-28T06:39:02;101033.00;;;-1.10;72.76
70133;BME280;57495;49.922;7.966;2023-02-28T06:41:04;101042.81;;;-1.17;72.85
70133;BME280;57495;49.922;7.966;2023-02-28T06:43:07;101039.06;;;-1.08;72.57
70133;BME280;57495;49.922;7.966;2023-02-28T06:45:12;101040.88;;;-1.10;72.43
70133;BME280;57495;49.922;7.966;2023-02-28T06:47:14;101035.59;;;-1.09;72.25
70133;BME280;57495;49.922;7.966;2023-02-28T06:49:16;101036.56;;;-1.13;72.46
70133;BME280;57495;49.922;7.966;2023-02-28T06:51:19;101038.34;;;-1.13;72.63
70133;BME280;57495;49.922;7.966;2023-02-28T06:53:22;101040.22;;;-1.19;72.81
70133;BME280;57495;49.922;7.966;2023-02-28T06:55:23;101046.09;;;-1.09;72.66
70133;BME280;57495;49.922;7.966;2023-02-28T06:57:25;101044.69;;;-1.22;72.82
70133;BME280;57495;49.922;7.966;2023-02-28T06:59:28;101044.44;;;-1.13;72.68
70133;BME280;57495;49.922;7.966;2023-02-28T07:01:29;101049.69;;;-1.13;72.72
70133;BME280;57495;49.922;7.966;2023-02-28T07:03:31;101048.50;;;-1.01;72.39
70133;BME280;57495;49.922;7.966;2023-02-28T07:05:37;101052.78;;;-0.99;72.09
70133;BME280;57495;49.922;7.966;2023-02-28T07:07:38;101043.75;;;-0.88;71.81
70133;BME280;57495;49.922;7.966;2023-02-28T07:09:43;101047.19;;;-0.86;71.68
70133;BME280;57495;49.922;7.966;2023-02-28T07:11:48;101047.00;;;-0.80;71.47
70133;BME280;57495;49.922;7.966;2023-02-28T07:13:52;101057.09;;;-0.65;70.80
70133;BME280;57495;49.922;7.966;2023-02-28T07:15:56;101054.72;;;-0.44;70.18
70133;BME280;57495;49.922;7.966;2023-02-28T07:17:57;101058.03;;;-0.39;69.70
70133;BME280;57495;49.922;7.966;2023-02-28T07:20:01;101061.09;;;-0.25;68.97
70133;BME280;57495;49.922;7.966;2023-02-28T07:22:04;101058.91;;;-0.10;68.39
70133;BME280;57495;49.922;7.966;2023-02-28T07:24:06;101058.00;;;-0.09;68.75
70133;BME280;57495;49.922;7.966;2023-02-28T07:26:11;101061.63;;;0.15;67.78
70133;BME280;57495;49.922;7.966;2023-02-28T07:28:14;101057.03;;;0.20;68.06
70133;BME280;57495;49.922;7.966;2023-02-28T07:30:17;101066.00;;;0.41;67.74
70133;BME280;57495;49.922;7.966;2023-02-28T07:32:20;101062.31;;;0.47;66.96
70133;BME280;57495;49.922;7.966;2023-02-28T07:34:22;101054.84;;;0.60;65.96
70133;BME280;57495;49.922;7.966;2023-02-28T07:36:24;101051.22;;;0.62;65.92
70133;BME280;57495;49.922;7.966;2023-02-28T07:38:25;101050.44;;;0.85;64.91
70133;BME280;57495;49.922;7.966;2023-02-28T07:40:47;101057.44;;;1.10;64.69
70133;BME280;57495;49.922;7.966;2023-02-28T07:42:48;101054.34;;;1.22;63.85
70133;BME280;57495;49.922;7.966;2023-02-28T07:44:50;101051.94;;;1.16;61.81
70133;BME280;57495;49.922;7.966;2023-02-28T07:46:53;101055.34;;;1.18;62.39
70133;BME280;57495;49.922;7.966;2023-02-28T07:48:57;101056.75;;;1.28;60.42
70133;BME280;57495;49.922;7.966;2023-02-28T07:51:02;101053.06;;;1.32;60.64
70133;BME280;57495;49.922;7.966;2023-02-28T07:53:03;101057.09;;;1.43;60.93
70133;BME280;57495;49.922;7.966;2023-02-28T07:55:09;101055.81;;;1.53;59.82
70133;BME280;57495;49.922;7.966;2023-02-28T07:57:10;101052.81;;;1.62;60.07
70133;BME280;57495;49.922;7.966;2023-02-28T07:59:19;101055.94;;;1.72;58.59
70133;BME280;57495;49.922;7.966;2023-02-28T08:01:21;101057.72;;;1.71;57.94
70133;BME280;57495;49.922;7.966;2023-02-28T08:03:23;101053.66;;;1.85;58.04
70133;BME280;57495;49.922;7.966;2023-02-28T08:05:26;101054.19;;;1.72;57.99
70133;BME280;57495;49.922;7.966;2023-02-28T08:07:48;101062.00;;;1.96;57.45
70133;BME280;57495;49.922;7.966;2023-02-28T08:09:50;101053.59;;;2.08;56.50
70133;BME280;57495;49.922;7.966;2023-02-28T08:11:51;101056.66;;;2.20;56.84
70133;BME280;57495;49.922;7.966;2023-02-28T08:14:15;101061.56;;;2.29;55.87
70133;BME280;57495;49.922;7.966;2023-02-28T08:16:17;101051.41;;;2.40;55.31
70133;BME280;57495;49.922;7.966;2023-02-28T08:18:22;101051.56;;;2.58;55.26
70133;BME280;57495;49.922;7.966;2023-02-28T08:26:48;101050.84;;;2.54;54.01
70133;BME280;57495;49.922;7.966;2023-02-28T08:28:49;101058.41;;;2.62;54.63
70133;BME280;57495;49.922;7.966;2023-02-28T08:30:51;101060.78;;;2.68;54.19
70133;BME280;57495;49.922;7.966;2023-02-28T08:35:40;101057.34;;;2.86;54.16
70133;BME280;57495;49.922;7.966;2023-02-28T08:37:41;101061.06;;;2.62;55.55
70133;BME280;57495;49.922;7.966;2023-02-28T08:39:43;101056.06;;;2.56;55.59
70133;BME280;57495;49.922;7.966;2023-02-28T08:41:44;101062.97;;;2.38;55.61
70133;BME280;57495;49.922;7.966;2023-02-28T08:43:47;101063.81;;;2.38;56.37
70133;BME280;57495;49.922;7.966;2023-02-28T08:45:53;101062.84;;;2.41;55.99
70133;BME280;57495;49.922;7.966;2023-02-28T08:47:56;101063.97;;;2.35;56.38
70133;BME280;57495;49.922;7.966;2023-02-28T08:49:58;101066.16;;;2.24;56.23
70133;BME280;57495;49.922;7.966;2023-02-28T08:52:02;101072.56;;;2.18;56.55
70133;BME280;57495;49.922;7.966;2023-02-28T08:54:03;101071.59;;;2.21;57.06
70133;BME280;57495;49.922;7.966;2023-02-28T08:56:07;101074.63;;;2.32;58.17
70133;BME280;57495;49.922;7.966;2023-02-28T08:58:09;101073.06;;;2.48;58.41
70133;BME280;57495;49.922;7.966;2023-02-28T09:00:13;101071.09;;;2.54;58.06
70133;BME280;57495;49.922;7.966;2023-02-28T09:02:14;101072.88;;;2.53;58.18
70133;BME280;57495;49.922;7.966;2023-02-28T09:04:16;101076.78;;;2.44;57.88
70133;BME280;57495;49.922;7.966;2023-02-28T09:06:19;101068.13;;;2.41;58.01
70133;BME280;57495;49.922;7.966;2023-02-28T09:08:21;101079.25;;;2.47;57.97
70133;BME280;57495;49.922;7.966;2023-02-28T09:10:22;101075.84;;;2.45;58.31
70133;BME280;57495;49.922;7.966;2023-02-28T09:12:25;101069.44;;;2.51;58.24
70133;BME280;57495;49.922;7.966;2023-02-28T09:14:27;101066.78;;;2.30;57.61
70133;BME280;57495;49.922;7.966;2023-02-28T09:16:31;101068.34;;;2.35;58.37
70133;BME280;57495;49.922;7.966;2023-02-28T09:18:33;101068.38;;;2.55;58.73
70133;BME280;57495;49.922;7.966;2023-02-28T09:20:37;101054.31;;;2.55;58.03
70133;BME280;57495;49.922;7.966;2023-02-28T09:22:39;101073.00;;;2.50;58.58
70133;BME280;57495;49.922;7.966;2023-02-28T09:24:41;101074.78;;;2.49;57.20
70133;BME280;57495;49.922;7.966;2023-02-28T09:26:42;101057.56;;;2.41;56.73
70133;BME280;57495;49.922;7.966;2023-02-28T09:28:44;101066.22;;;2.44;56.87
70133;BME280;57495;49.922;7.966;2023-02-28T09:30:48;101050.09;;;2.50;56.95
70133;BME280;57495;49.922;7.966;2023-02-28T09:32:54;101064.38;;;2.67;57.66
70133;BME280;57495;49.922;7.966;2023-02-28T09:34:55;101063.63;;;2.84;56.60
70133;BME280;57495;49.922;7.966;2023-02-28T09:36:59;101059.47;;;3.37;56.92
70133;BME280;57495;49.922;7.966;2023-02-28T09:39:00;101065.69;;;3.74;53.76
70133;BME280;57495;49.922;7.966;2023-02-28T09:41:04;101059.56;;;4.27;52.77
70133;BME280;57495;49.922;7.966;2023-02-28T09:43:12;101062.63;;;4.54;52.41
70133;BME280;57495;49.922;7.966;2023-02-28T09:45:22;101059.03;;;4.73;51.69
70133;BME280;57495;49.922;7.966;2023-02-28T09:47:27;101057.81;;;4.96;50.86
70133;BME280;57495;49.922;7.966;2023-02-28T09:49:36;101061.16;;;5.17;50.12
70133;BME280;57495;49.922;7.966;2023-02-28T09:51:45;101059.19;;;5.20;49.64
70133;BME280;57495;49.922;7.966;2023-02-28T09:53:52;101052.09;;;5.21;48.85
70133;BME280;57495;49.922;7.966;2023-02-28T09:55:57;101057.81;;;4.96;49.76
70133;BME280;57495;49.922;7.966;2023-02-28T09:58:00;101060.06;;;5.37;48.97
70133;BME280;57495;49.922;7.966;2023-02-28T10:00:10;101059.41;;;5.65;48.77
70133;BME280;57495;49.922;7.966;2023-02-28T10:02:33;101058.88;;;5.90;48.39
70133;BME280;57495;49.922;7.966;2023-02-28T10:04:46;101065.41;;;6.16;52.57
70133;BME280;57495;49.922;7.966;2023-02-28T10:06:52;101060.25;;;6.29;48.89
70133;BME280;57495;49.922;7.966;2023-02-28T10:08:58;101050.16;;;6.20;45.33
70133;BME280;57495;49.922;7.966;2023-02-28T10:11:06;101060.81;;;6.34;44.79
70133;BME280;57495;49.922;7.966;2023-02-28T10:13:16;101053.59;;;6.06;44.81
70133;BME280;57495;49.922;7.966;2023-02-28T10:15:21;101051.09;;;5.87;44.66
70133;BME280;57495;49.922;7.966;2023-02-28T10:17:26;101056.13;;;5.92;44.68
70133;BME280;57495;49.922;7.966;2023-02-28T10:19:34;101057.84;;;6.09;44.48
70133;BME280;57495;49.922;7.966;2023-02-28T10:21:44;101052.13;;;6.16;44.41
70133;BME280;57495;49.922;7.966;2023-02-28T10:23:47;101053.38;;;6.25;44.36
70133;BME280;57495;49.922;7.966;2023-02-28T10:25:54;101059.03;;;6.80;44.46
70133;BME280;57495;49.922;7.966;2023-02-28T10:28:00;101052.75;;;6.81;43.06
70133;BME280;57495;49.922;7.966;2023-02-28T10:30:03;101052.19;;;6.90;43.33
70133;BME280;57495;49.922;7.966;2023-02-28T10:32:06;101059.69;;;6.69;42.93
70133;BME280;57495;49.922;7.966;2023-02-28T10:34:11;101055.38;;;6.52;42.56
70133;BME280;57495;49.922;7.966;2023-02-28T10:36:15;101055.97;;;6.71;42.49
70133;BME280;57495;49.922;7.966;2023-02-28T10:38:22;101051.47;;;7.16;42.22
70133;BME280;57495;49.922;7.966;2023-02-28T10:40:30;101045.28;;;7.16;41.36
70133;BME280;57495;49.922;7.966;2023-02-28T10:42:32;101045.19;;;7.18;41.85
70133;BME280;57495;49.922;7.966;2023-02-28T10:44:38;101053.88;;;7.63;41.80
70133;BME280;57495;49.922;7.966;2023-02-28T10:46:40;101042.72;;;7.98;41.87
70133;BME280;57495;49.922;7.966;2023-02-28T10:48:44;101039.28;;;7.83;40.93
70133;BME280;57495;49.922;7.966;2023-02-28T10:50:51;101054.56;;;7.93;43.26
70133;BME280;57495;49.922;7.966;2023-02-28T10:53:07;101039.63;;;8.18;40.38
70133;BME280;57495;49.922;7.966;2023-02-28T10:55:18;101046.69;;;7.50;41.01
70133;BME280;57495;49.922;7.966;2023-02-28T10:57:23;101037.56;;;7.82;40.14
70133;BME280;57495;49.922;7.966;2023-02-28T10:59:28;101046.09;;;7.60;40.12
70133;BME280;57495;49.922;7.966;2023-02-28T11:01:38;101050.88;;;6.97;40.82
70133;BME280;57495;49.922;7.966;2023-02-28T11:03:40;101057.75;;;6.26;42.56
70133;BME280;57495;49.922;7.966;2023-02-28T11:05:43;101054.59;;;5.72;41.99
70133;BME280;57495;49.922;7.966;2023-02-28T11:07:51;101047.94;;;5.65;43.35
70133;BME280;57495;49.922;7.966;2023-02-28T11:09:53;101041.38;;;6.34;43.97
70133;BME280;57495;49.922;7.966;2023-02-28T11:11:57;101039.00;;;6.74;42.58